Time;durP1;ratioP1;P1;durP2;ratioP2;P2;SDS_P1;SDS_P2;PMS_P1;PMS_P2;Temp;Humidity;BMP_temperature;BMP_pressure;BME280_temperature;BME280_humidity;BME280_pressure;Samples;Min_cycle;Max_cycle;Signal;HPM_P1;HPM_P2
2023/08/02 00:03:38;;;;;;;2.50;1.40;;;;;;;;;;10557119;28;20085;-76
2023/08/02 00:08:41;;;;;;;4.70;1.65;;;;;;;;;;10559794;28;20089;-76
2023/08/02 00:13:44;;;;;;;4.80;1.50;;;;;;;;;;10556860;28;20115;-77
2023/08/02 00:18:49;;;;;;;3.53;1.23;;;;;;;;;;10549359;28;20040;-77
2023/08/02 00:23:51;;;;;;;2.67;1.40;;;;;;;;;;10559789;27;20053;-76
2023/08/02 00:28:54;;;;;;;1.58;0.98;;;;;;;;;;10550157;27;20597;-78
2023/08/02 00:33:58;;;;;;;3.50;1.45;;;;;;;;;;10570982;27;20039;-77
2023/08/02 00:39:01;;;;;;;1.40;1.15;;;;;;;;;;10568088;27;20047;-77
2023/08/02 00:44:04;;;;;;;2.15;1.30;;;;;;;;;;10558486;27;20043;-77
2023/08/02 00:49:11;;;;;;;2.53;1.40;;;;;;;;;;10559306;27;20140;-77
2023/08/02 00:54:13;;;;;;;2.42;1.52;;;;;;;;;;10562204;27;20038;-76
2023/08/02 00:59:16;;;;;;;3.15;1.75;;;;;;;;;;10550117;27;20048;-76
2023/08/02 01:04:20;;;;;;;3.75;1.73;;;;;;;;;;10559624;27;20044;-77
2023/08/02 01:09:26;;;;;;;5.97;1.40;;;;;;;;;;10557767;27;20053;-77
2023/08/02 01:14:29;;;;;;;3.78;1.30;;;;;;;;;;10557206;27;20032;-77
2023/08/02 01:19:40;;;;;;;3.45;1.35;;;;;;;;;;10555664;27;20089;-76
2023/08/02 01:24:44;;;;;;;4.07;1.45;;;;;;;;;;10560167;27;20166;-77
2023/08/02 01:29:47;;;;;;;2.38;0.88;;;;;;;;;;10558072;27;20135;-77
2023/08/02 01:34:51;;;;;;;2.25;1.20;;;;;;;;;;10555818;27;20106;-76
2023/08/02 01:39:54;;;;;;;;;;;;;;;;;;10564437;27;20135;-76
2023/08/02 01:44:58;;;;;;;3.40;1.40;;;;;;;;;;10552518;27;19931;-76
2023/08/02 01:50:00;;;;;;;2.85;1.60;;;;;;;;;;10569781;27;20150;-76
2023/08/02 01:55:03;;;;;;;4.20;1.60;;;;;;;;;;10555177;27;20039;-76
2023/08/02 02:00:09;;;;;;;2.67;1.37;;;;;;;;;;10549263;27;20044;-76
2023/08/02 02:05:11;;;;;;;2.70;1.60;;;;;;;;;;10548699;27;20521;-76
2023/08/02 02:10:14;;;;;;;4.70;1.50;;;;;;;;;;10556484;27;20119;-75
2023/08/02 02:15:18;;;;;;;4.78;1.40;;;;;;;;;;10559210;27;20132;-76
2023/08/02 02:20:21;;;;;;;3.35;1.73;;;;;;;;;;10561572;27;20560;-76
2023/08/02 02:25:24;;;;;;;1.83;1.30;;;;;;;;;;10554745;27;20068;-76
2023/08/02 02:30:28;;;;;;;2.88;1.63;;;;;;;;;;10548121;27;20130;-75
2023/08/02 02:35:31;;;;;;;4.30;1.70;;;;;;;;;;10557656;27;20028;-76
2023/08/02 02:40:34;;;;;;;5.03;1.67;;;;;;;;;;10551775;28;20130;-76
2023/08/02 02:45:39;;;;;;;3.78;1.67;;;;;;;;;;10558729;27;20127;-76
2023/08/02 02:50:42;;;;;;;5.35;1.70;;;;;;;;;;10560839;27;20051;-77
2023/08/02 02:55:45;;;;;;;2.67;1.50;;;;;;;;;;10569371;27;20035;-77
2023/08/02 03:00:50;;;;;;;4.18;1.48;;;;;;;;;;10568582;27;20047;-77
2023/08/02 03:05:53;;;;;;;4.72;1.65;;;;;;;;;;10548445;27;20047;-76
2023/08/02 03:10:55;;;;;;;3.90;1.90;;;;;;;;;;10566598;27;20047;-76
2023/08/02 03:15:59;;;;;;;3.78;1.98;;;;;;;;;;10562254;27;20035;-76
2023/08/02 03:21:02;;;;;;;5.70;2.00;;;;;;;;;;10559057;27;20064;-75
2023/08/02 03:26:05;;;;;;;4.00;1.90;;;;;;;;;;10564693;28;20119;-76
2023/08/02 03:31:10;;;;;;;4.30;2.20;;;;;;;;;;10560859;28;20035;-76
2023/08/02 03:36:13;;;;;;;3.47;1.73;;;;;;;;;;10558830;28;20402;-76
2023/08/02 03:41:15;;;;;;;3.28;1.92;;;;;;;;;;10565837;28;20047;-76
2023/08/02 03:46:20;;;;;;;5.47;1.60;;;;;;;;;;10555936;28;20067;-76
2023/08/02 03:51:23;;;;;;;4.95;2.03;;;;;;;;;;10562748;28;20574;-76
2023/08/02 03:56:26;;;;;;;4.20;2.40;;;;;;;;;;10564040;27;20045;-76
2023/08/02 04:01:31;;;;;;;4.55;2.03;;;;;;;;;;10572535;27;20044;-76
2023/08/02 04:06:33;;;;;;;0.90;0.80;;;;;;;;;;10577089;27;20032;-77
2023/08/02 04:11:37;;;;;;;2.92;1.38;;;;;;;;;;10562736;27;20498;-75
2023/08/02 04:16:41;;;;;;;2.08;1.05;;;;;;;;;;10573499;27;20100;-76
2023/08/02 04:21:44;;;;;;;4.72;1.55;;;;;;;;;;10571044;27;20048;-77
2023/08/02 04:26:47;;;;;;;5.43;1.97;;;;;;;;;;10562642;27;20051;-77
2023/08/02 04:31:51;;;;;;;1.13;0.73;;;;;;;;;;10566423;27;20070;-76
2023/08/02 04:36:54;;;;;;;3.88;1.48;;;;;;;;;;10565150;27;20036;-76
2023/08/02 04:42:00;;;;;;;3.13;1.70;;;;;;;;;;10546355;27;20127;-76
2023/08/02 04:47:04;;;;;;;3.30;1.70;;;;;;;;;;10572243;27;20401;-77
2023/08/02 04:52:08;;;;;;;4.25;1.67;;;;;;;;;;10564534;27;20071;-76
2023/08/02 04:57:11;;;;;;;4.70;1.90;;;;;;;;;;10539471;27;20035;-76
2023/08/02 05:02:15;;;;;;;3.20;1.40;;;;;;;;;;10571247;27;20420;-76
2023/08/02 05:07:18;;;;;;;3.22;1.60;;;;;;;;;;10559345;27;20044;-77
2023/08/02 05:12:21;;;;;;;3.07;1.37;;;;;;;;;;10559586;27;20059;-74
2023/08/02 05:17:27;;;;;;;2.63;1.60;;;;;;;;;;10560955;27;20107;-78
2023/08/02 05:22:31;;;;;;;2.90;1.70;;;;;;;;;;10556127;27;20428;-75
2023/08/02 05:27:33;;;;;;;2.65;1.30;;;;;;;;;;10557921;27;20036;-76
2023/08/02 05:32:37;;;;;;;2.13;1.33;;;;;;;;;;10557896;27;20830;-77
2023/08/02 05:37:41;;;;;;;1.77;1.08;;;;;;;;;;10568104;27;20047;-76
2023/08/02 05:42:43;;;;;;;2.80;1.37;;;;;;;;;;10563138;27;20497;-76
2023/08/02 05:47:49;;;;;;;2.20;1.00;;;;;;;;;;10560709;27;20050;-75
2023/08/02 05:52:52;;;;;;;2.88;1.55;;;;;;;;;;10554992;27;20116;-76
2023/08/02 05:57:55;;;;;;;6.15;1.48;;;;;;;;;;10568190;27;20040;-75
2023/08/02 06:02:59;;;;;;;3.58;1.80;;;;;;;;;;10565744;27;20459;-75
2023/08/02 06:08:01;;;;;;;3.80;1.20;;;;;;;;;;10555662;27;20058;-74
2023/08/02 06:13:04;;;;;;;3.58;1.60;;;;;;;;;;10563253;27;20410;-75
2023/08/02 06:18:09;;;;;;;1.88;0.90;;;;;;;;;;10549362;27;20138;-74
2023/08/02 06:23:12;;;;;;;4.65;1.50;;;;;;;;;;10562711;27;20055;-75
2023/08/02 06:28:14;;;;;;;2.42;1.20;;;;;;;;;;10563992;27;20031;-76
2023/08/02 06:33:19;;;;;;;2.33;1.03;;;;;;;;;;10556677;27;20082;-74
2023/08/02 06:38:21;;;;;;;2.78;1.55;;;;;;;;;;10553137;27;20384;-75
2023/08/02 06:43:24;;;;;;;1.70;1.30;;;;;;;;;;10569397;27;20043;-75
2023/08/02 06:48:28;;;;;;;3.70;1.80;;;;;;;;;;10561140;27;20040;-75
2023/08/02 06:53:31;;;;;;;2.67;1.58;;;;;;;;;;10554981;27;20461;-75
2023/08/02 06:58:34;;;;;;;3.72;1.45;;;;;;;;;;10555021;27;20040;-76
2023/08/02 07:03:37;;;;;;;3.20;1.70;;;;;;;;;;10553512;27;20054;-76
2023/08/02 07:08:40;;;;;;;5.10;2.05;;;;;;;;;;10550341;27;20054;-76
2023/08/02 07:13:44;;;;;;;4.33;1.90;;;;;;;;;;10556318;27;20062;-77
2023/08/02 07:18:48;;;;;;;4.93;1.90;;;;;;;;;;10560158;27;20047;-76
2023/08/02 07:23:51;;;;;;;6.15;2.25;;;;;;;;;;10558165;28;20054;-77
2023/08/02 07:28:54;;;;;;;1.45;0.90;;;;;;;;;;10545029;27;20043;-78
2023/08/02 07:33:58;;;;;;;5.22;1.70;;;;;;;;;;10556151;28;20075;-77
2023/08/02 07:45:05;;;;;;;5.40;2.05;;;;;;;;;;10531358;28;20106;-76
2023/08/02 07:50:10;;;;;;;8.15;2.10;;;;;;;;;;10550241;28;20418;-75
2023/08/02 07:55:13;;;;;;;4.88;2.03;;;;;;;;;;10552189;28;20077;-76
2023/08/02 08:00:16;;;;;;;4.53;2.00;;;;;;;;;;10552344;28;20042;-76
2023/08/02 08:05:20;;;;;;;4.35;1.73;;;;;;;;;;10552106;28;20038;-76
2023/08/02 08:10:23;;;;;;;3.58;2.03;;;;;;;;;;10550955;28;20043;-76
2023/08/02 08:15:26;;;;;;;4.43;1.90;;;;;;;;;;10555464;28;20050;-76
2023/08/02 08:20:30;;;;;;;1.80;1.02;;;;;;;;;;10549672;28;20123;-76
2023/08/02 08:25:33;;;;;;;4.07;2.17;;;;;;;;;;10556430;28;20419;-76
2023/08/02 08:30:36;;;;;;;1.60;1.17;;;;;;;;;;10557518;28;20414;-76
2023/08/02 08:35:41;;;;;;;4.70;2.05;;;;;;;;;;10556025;28;20122;-76
2023/08/02 08:40:49;;;;;;;1.58;0.98;;;;;;;;;;10556685;27;20047;-76
2023/08/02 08:45:53;;;;;;;2.67;1.40;;;;;;;;;;10552156;27;20032;-77
2023/08/02 08:51:00;;;;;;;4.22;2.08;;;;;;;;;;10551321;27;20159;-77
2023/08/02 08:56:04;;;;;;;4.50;1.63;;;;;;;;;;10562331;28;20338;-76
2023/08/02 09:01:07;;;;;;;4.45;1.33;;;;;;;;;;10557378;27;20054;-77
2023/08/02 09:06:11;;;;;;;4.00;2.20;;;;;;;;;;10562065;27;20048;-77
2023/08/02 09:11:15;;;;;;;4.95;2.25;;;;;;;;;;10555548;27;20100;-76
2023/08/02 09:16:18;;;;;;;8.55;2.22;;;;;;;;;;10561310;27;20100;-77
2023/08/02 09:21:22;;;;;;;1.98;0.82;;;;;;;;;;10573014;27;20051;-77
2023/08/02 09:26:25;;;;;;;2.47;1.52;;;;;;;;;;10553725;27;20050;-77
2023/08/02 09:31:28;;;;;;;4.95;2.20;;;;;;;;;;10555857;27;20043;-77
2023/08/02 09:36:33;;;;;;;4.35;1.67;;;;;;;;;;10549889;27;20039;-77
2023/08/02 09:41:36;;;;;;;6.25;2.20;;;;;;;;;;10556467;27;20040;-78
2023/08/02 09:46:42;;;;;;;6.38;2.05;;;;;;;;;;10564726;27;20152;-77
2023/08/02 09:51:46;;;;;;;6.03;2.03;;;;;;;;;;10556658;27;20047;-77
2023/08/02 09:56:49;;;;;;;4.18;1.83;;;;;;;;;;10560838;27;20466;-77
2023/08/02 10:01:52;;;;;;;4.07;1.95;;;;;;;;;;10553061;27;20600;-77
2023/08/02 10:07:00;;;;;;;6.60;2.35;;;;;;;;;;10558582;28;20039;-78
2023/08/02 10:12:07;;;;;;;3.80;1.85;;;;;;;;;;10553695;27;20119;-78
2023/08/02 10:17:10;;;;;;;4.75;1.92;;;;;;;;;;10551256;27;20427;-78
2023/08/02 10:22:14;;;;;;;2.42;1.45;;;;;;;;;;10558518;27;20043;-77
2023/08/02 10:27:18;;;;;;;4.47;2.08;;;;;;;;;;10567265;27;20040;-77
2023/08/02 10:32:21;;;;;;;4.70;1.98;;;;;;;;;;10544752;27;20044;-77
2023/08/02 10:37:46;;;;;;;3.75;1.65;;;;;;;;;;10553361;27;20075;-75
2023/08/02 10:43:03;;;;;;;4.30;2.28;;;;;;;;;;10555444;27;20093;-76
2023/08/02 10:48:27;;;;;;;7.38;2.85;;;;;;;;;;10553057;27;20131;-77
2023/08/02 10:53:29;;;;;;;5.80;2.17;;;;;;;;;;10557096;27;20155;-76
2023/08/02 10:58:50;;;;;;;7.45;3.03;;;;;;;;;;10562741;27;20032;-76
2023/08/02 11:03:53;;;;;;;3.95;2.00;;;;;;;;;;10568530;27;20403;-76
2023/08/02 11:08:55;;;;;;;;;;;;;;;;;;10559159;27;20537;-77
2023/08/02 11:14:00;;;;;;;2.67;1.80;;;;;;;;;;10560463;27;19923;-77
2023/08/02 11:19:08;;;;;;;3.42;1.73;;;;;;;;;;10557982;27;20506;-77
2023/08/02 11:24:11;;;;;;;2.97;1.40;;;;;;;;;;10552179;28;20051;-77
2023/08/02 11:29:15;;;;;;;3.03;2.03;;;;;;;;;;10556213;28;20250;-77
2023/08/02 11:34:19;;;;;;;1.90;1.70;;;;;;;;;;10550847;28;20051;-77
2023/08/02 11:39:22;;;;;;;3.47;2.03;;;;;;;;;;10553287;28;20498;-77
2023/08/02 11:44:26;;;;;;;5.07;2.03;;;;;;;;;;10551016;28;20132;-77
2023/08/02 11:49:29;;;;;;;3.50;1.98;;;;;;;;;;10562165;28;20031;-77
2023/08/02 11:54:32;;;;;;;2.42;1.83;;;;;;;;;;10559749;28;20053;-77
2023/08/02 11:59:36;;;;;;;2.90;1.75;;;;;;;;;;10554857;28;20042;-77
2023/08/02 12:04:39;;;;;;;2.10;1.50;;;;;;;;;;10558030;28;20042;-79
2023/08/02 12:09:43;;;;;;;1.95;1.52;;;;;;;;;;10551809;28;20057;-77
2023/08/02 12:14:48;;;;;;;3.03;1.90;;;;;;;;;;10556692;27;20059;-76
2023/08/02 12:19:51;;;;;;;2.92;1.98;;;;;;;;;;10566118;27;20039;-76
2023/08/02 12:25:12;;;;;;;3.58;1.60;;;;;;;;;;10560292;27;20192;-77
2023/08/02 12:30:17;;;;;;;3.43;1.80;;;;;;;;;;10565629;27;20599;-76
2023/08/02 12:35:20;;;;;;;2.65;1.70;;;;;;;;;;10566647;27;20075;-77
2023/08/02 12:40:22;;;;;;;1.52;1.30;;;;;;;;;;10568408;27;20084;-77
2023/08/02 12:45:27;;;;;;;1.75;1.38;;;;;;;;;;10570901;27;20039;-77
2023/08/02 12:50:29;;;;;;;1.73;1.30;;;;;;;;;;10558406;27;20055;-75
2023/08/02 12:55:32;;;;;;;3.33;1.50;;;;;;;;;;10558286;27;20494;-76
2023/08/02 13:00:36;;;;;;;1.42;1.33;;;;;;;;;;10557306;27;20044;-76
2023/08/02 13:05:39;;;;;;;2.47;1.60;;;;;;;;;;10557344;27;20036;-76
2023/08/02 13:10:41;;;;;;;1.80;1.42;;;;;;;;;;10561571;27;20047;-77
2023/08/02 13:15:46;;;;;;;2.03;1.70;;;;;;;;;;10562374;27;20722;-75
2023/08/02 13:20:48;;;;;;;1.90;1.48;;;;;;;;;;10560977;27;20039;-76
2023/08/02 13:25:51;;;;;;;5.65;1.75;;;;;;;;;;10557382;27;20039;-76
2023/08/02 13:30:58;;;;;;;2.35;1.60;;;;;;;;;;10559867;27;20158;-75
2023/08/02 13:36:01;;;;;;;1.70;1.50;;;;;;;;;;10563696;27;20043;-75
2023/08/02 13:41:04;;;;;;;3.65;1.48;;;;;;;;;;10564238;27;20047;-76
2023/08/02 13:46:08;;;;;;;1.70;1.35;;;;;;;;;;10562906;27;20047;-75
2023/08/02 13:51:10;;;;;;;3.35;1.38;;;;;;;;;;10555314;27;20040;-76
2023/08/02 13:56:13;;;;;;;1.85;1.30;;;;;;;;;;10560853;27;20555;-76
2023/08/02 14:01:17;;;;;;;2.40;1.38;;;;;;;;;;10545649;27;20132;-76
2023/08/02 14:06:20;;;;;;;3.38;1.67;;;;;;;;;;10555561;27;20050;-76
2023/08/02 14:11:23;;;;;;;1.58;1.20;;;;;;;;;;10558047;27;20840;-76
2023/08/02 14:16:27;;;;;;;2.08;1.42;;;;;;;;;;10568822;27;20028;-76
2023/08/02 14:21:30;;;;;;;1.58;1.20;;;;;;;;;;10560746;27;20039;-75
2023/08/02 14:26:32;;;;;;;2.38;1.30;;;;;;;;;;10562355;27;20098;-75
2023/08/02 14:31:36;;;;;;;1.95;1.30;;;;;;;;;;10556507;27;20054;-75
2023/08/02 14:36:39;;;;;;;2.30;1.40;;;;;;;;;;10557130;27;20044;-76
2023/08/02 14:41:43;;;;;;;2.58;1.50;;;;;;;;;;10551732;27;20517;-76
2023/08/02 14:46:47;;;;;;;2.85;1.55;;;;;;;;;;10552496;27;20043;-76
2023/08/02 14:51:51;;;;;;;2.40;1.02;;;;;;;;;;10552677;27;20119;-76
2023/08/02 14:56:53;;;;;;;4.55;1.63;;;;;;;;;;10555870;28;20096;-77
2023/08/02 15:01:58;;;;;;;2.08;1.42;;;;;;;;;;10555447;27;20047;-78
2023/08/02 15:07:00;;;;;;;3.00;1.63;;;;;;;;;;10557940;27;20036;-77
2023/08/02 15:12:03;;;;;;;4.07;1.52;;;;;;;;;;10536518;27;20112;-77
2023/08/02 15:17:07;;;;;;;1.23;0.93;;;;;;;;;;10547565;27;20036;-77
2023/08/02 15:22:10;;;;;;;2.10;1.23;;;;;;;;;;10556068;27;20088;-77
2023/08/02 15:27:13;;;;;;;2.53;1.30;;;;;;;;;;10547289;28;20038;-77
2023/08/02 15:32:17;;;;;;;5.03;2.97;;;;;;;;;;10548612;27;20410;-75
2023/08/02 15:37:20;;;;;;;1.50;1.20;;;;;;;;;;10559656;28;20027;-76
2023/08/02 15:42:24;;;;;;;1.70;1.10;;;;;;;;;;10557639;28;20113;-76
2023/08/02 15:47:28;;;;;;;3.58;1.80;;;;;;;;;;10556881;28;20039;-76
2023/08/02 15:52:31;;;;;;;4.80;1.85;;;;;;;;;;10566774;27;20039;-77
2023/08/02 15:57:34;;;;;;;3.05;1.58;;;;;;;;;;10564447;27;20038;-77
2023/08/02 16:02:38;;;;;;;3.05;1.55;;;;;;;;;;10568288;27;20229;-77
2023/08/02 16:07:41;;;;;;;2.25;1.30;;;;;;;;;;10564389;27;20039;-76
2023/08/02 16:12:44;;;;;;;2.95;1.65;;;;;;;;;;10559467;27;20466;-77
2023/08/02 16:17:48;;;;;;;2.47;1.30;;;;;;;;;;10566543;27;20127;-75
2023/08/02 16:22:55;;;;;;;2.25;1.42;;;;;;;;;;10569444;27;20043;-77
2023/08/02 16:27:58;;;;;;;1.80;1.38;;;;;;;;;;10561904;27;20111;-77
2023/08/02 16:33:02;;;;;;;2.70;1.50;;;;;;;;;;10559943;27;20047;-76
2023/08/02 16:38:05;;;;;;;4.75;1.30;;;;;;;;;;10553865;27;20233;-76
2023/08/02 16:43:08;;;;;;;2.72;1.60;;;;;;;;;;10557380;27;20048;-76
2023/08/02 16:48:12;;;;;;;3.40;1.80;;;;;;;;;;10564492;27;20302;-77
2023/08/02 16:53:14;;;;;;;3.83;1.98;;;;;;;;;;10572203;27;20415;-76
2023/08/02 16:58:21;;;;;;;3.15;1.67;;;;;;;;;;10561060;27;20055;-75
2023/08/02 17:03:25;;;;;;;4.03;1.80;;;;;;;;;;10567834;27;20604;-76
2023/08/02 17:08:28;;;;;;;2.95;1.60;;;;;;;;;;10567272;27;20098;-75
2023/08/02 17:13:32;;;;;;;3.28;1.98;;;;;;;;;;10565715;27;20059;-76
2023/08/02 17:18:36;;;;;;;3.60;1.88;;;;;;;;;;10560229;27;20517;-75
2023/08/02 17:23:39;;;;;;;2.92;1.60;;;;;;;;;;10553329;27;20036;-77
2023/08/02 17:28:42;;;;;;;3.92;2.10;;;;;;;;;;10560937;27;20564;-76
2023/08/02 17:33:46;;;;;;;3.92;1.90;;;;;;;;;;10559662;27;20047;-76
2023/08/02 17:38:49;;;;;;;2.95;1.80;;;;;;;;;;10556459;27;20047;-76
2023/08/02 17:43:52;;;;;;;4.05;2.33;;;;;;;;;;10567775;27;20036;-76
2023/08/02 17:48:56;;;;;;;2.90;1.85;;;;;;;;;;10564697;27;20519;-76
2023/08/02 17:53:59;;;;;;;3.80;2.05;;;;;;;;;;10566495;27;20557;-76
2023/08/02 17:59:02;;;;;;;3.70;1.63;;;;;;;;;;10565575;27;20050;-76
2023/08/02 18:04:12;;;;;;;3.85;2.15;;;;;;;;;;10562979;27;20491;-75
2023/08/02 18:09:15;;;;;;;4.07;2.08;;;;;;;;;;10566747;27;20516;-76
2023/08/02 18:14:18;;;;;;;;;;;;;;;;;;10553391;27;20527;-78
2023/08/02 18:19:22;;;;;;;3.72;2.10;;;;;;;;;;10556897;27;19924;-76
2023/08/02 18:24:26;;;;;;;5.28;2.70;;;;;;;;;;10551894;27;20047;-76
2023/08/02 18:29:38;;;;;;;5.70;2.38;;;;;;;;;;10557659;27;20459;-76
2023/08/02 18:34:42;;;;;;;5.95;2.50;;;;;;;;;;10554949;27;20567;-74
2023/08/02 18:39:45;;;;;;;5.45;2.83;;;;;;;;;;10554424;27;20478;-74
2023/08/02 18:44:48;;;;;;;5.85;2.92;;;;;;;;;;10567292;27;20040;-73
2023/08/02 18:49:54;;;;;;;6.03;2.88;;;;;;;;;;10561795;27;20041;-74
2023/08/02 18:54:57;;;;;;;11.40;2.80;;;;;;;;;;10561178;27;20081;-74
2023/08/02 19:00:00;;;;;;;3.90;1.83;;;;;;;;;;10554437;27;20039;-75
2023/08/02 19:05:09;;;;;;;6.00;3.20;;;;;;;;;;10560233;27;20054;-73
2023/08/02 19:10:13;;;;;;;5.30;2.67;;;;;;;;;;10556049;28;20096;-74
2023/08/02 19:15:16;;;;;;;1.67;1.27;;;;;;;;;;10558094;27;20116;-73
2023/08/02 19:20:22;;;;;;;5.03;2.70;;;;;;;;;;10560036;27;20040;-74
2023/08/02 19:25:25;;;;;;;3.97;1.90;;;;;;;;;;10556538;27;20066;-73
2023/08/02 19:30:28;;;;;;;6.25;2.20;;;;;;;;;;10556487;28;20037;-73
2023/08/02 19:35:33;;;;;;;4.10;2.30;;;;;;;;;;10559389;28;20063;-73
2023/08/02 19:40:35;;;;;;;7.45;1.85;;;;;;;;;;10563100;28;20109;-74
2023/08/02 19:45:38;;;;;;;3.22;2.10;;;;;;;;;;10560348;28;20063;-74
2023/08/02 19:50:43;;;;;;;4.60;2.38;;;;;;;;;;10557315;28;20044;-74
2023/08/02 19:55:46;;;;;;;5.22;1.92;;;;;;;;;;10545082;28;20100;-74
2023/08/02 20:00:49;;;;;;;4.93;2.40;;;;;;;;;;10557536;28;20504;-75
2023/08/02 20:05:57;;;;;;;4.75;2.60;;;;;;;;;;10559968;28;20126;-75
2023/08/02 20:11:02;;;;;;;3.03;2.00;;;;;;;;;;10559471;28;20059;-74
2023/08/02 20:16:06;;;;;;;5.18;2.40;;;;;;;;;;10568817;28;20673;-77
2023/08/02 20:21:11;;;;;;;4.68;2.40;;;;;;;;;;10562423;28;20059;-77
2023/08/02 20:26:18;;;;;;;5.50;2.10;;;;;;;;;;10554904;28;20036;-76
2023/08/02 20:31:22;;;;;;;3.38;1.75;;;;;;;;;;10558932;28;20543;-76
2023/08/02 20:36:27;;;;;;;4.97;2.90;;;;;;;;;;10563623;27;20123;-79
2023/08/02 20:41:30;;;;;;;5.22;2.55;;;;;;;;;;10566796;27;20038;-76
2023/08/02 20:46:35;;;;;;;5.38;3.40;;;;;;;;;;10568452;27;20047;-76
2023/08/02 20:51:41;;;;;;;5.85;2.63;;;;;;;;;;10567307;27;20526;-76
2023/08/02 20:56:45;;;;;;;6.78;2.90;;;;;;;;;;10566817;27;20058;-77
2023/08/02 21:01:47;;;;;;;5.30;2.50;;;;;;;;;;10565373;27;20041;-77
2023/08/02 21:06:54;;;;;;;4.60;2.55;;;;;;;;;;10567870;27;20053;-77
2023/08/02 21:12:15;;;;;;;6.53;2.63;;;;;;;;;;10563604;27;20674;-77
2023/08/02 21:17:19;;;;;;;3.65;2.05;;;;;;;;;;10571641;27;20063;-77
2023/08/02 21:22:23;;;;;;;4.50;2.30;;;;;;;;;;10566733;27;20035;-75
2023/08/02 21:27:27;;;;;;;5.65;2.75;;;;;;;;;;10553867;27;20040;-77
2023/08/02 21:32:31;;;;;;;5.82;2.67;;;;;;;;;;10567580;27;20468;-77
2023/08/02 21:37:45;;;;;;;5.00;2.45;;;;;;;;;;10569494;27;20108;-76
2023/08/02 21:42:49;;;;;;;4.47;2.53;;;;;;;;;;10567685;27;20039;-77
2023/08/02 21:47:53;;;;;;;6.75;3.03;;;;;;;;;;10562042;27;20039;-79
2023/08/02 21:52:56;;;;;;;;;;;;;;;;;;10553982;27;20052;-77
2023/08/02 21:58:04;;;;;;;8.25;3.13;;;;;;;;;;10560938;27;19980;-77
2023/08/02 22:03:11;;;;;;;6.85;2.95;;;;;;;;;;10569061;27;20114;-77
2023/08/02 22:08:15;;;;;;;5.13;2.90;;;;;;;;;;10568913;27;20071;-78
2023/08/02 22:13:19;;;;;;;5.70;2.65;;;;;;;;;;10565640;27;20194;-77
2023/08/02 22:18:22;;;;;;;7.80;2.10;;;;;;;;;;10560822;27;20040;-77
2023/08/02 22:23:25;;;;;;;3.72;2.13;;;;;;;;;;10545427;27;20049;-77
2023/08/02 22:28:29;;;;;;;3.95;2.08;;;;;;;;;;10556574;27;20112;-77
2023/08/02 22:33:32;;;;;;;9.20;2.63;;;;;;;;;;10565254;27;20184;-77
2023/08/02 22:38:35;;;;;;;3.47;2.17;;;;;;;;;;10563102;27;20039;-78
2023/08/02 22:43:52;;;;;;;2.47;1.70;;;;;;;;;;10553061;27;20043;-77
2023/08/02 22:48:55;;;;;;;4.60;1.35;;;;;;;;;;10550482;27;20127;-78
2023/08/02 22:54:18;;;;;;;2.15;1.20;;;;;;;;;;10561675;27;20054;-77
2023/08/02 22:59:22;;;;;;;1.93;0.97;;;;;;;;;;10560751;27;20040;-77
2023/08/02 23:04:25;;;;;;;3.42;1.25;;;;;;;;;;10558516;27;20070;-77
2023/08/02 23:09:28;;;;;;;1.42;0.95;;;;;;;;;;10555320;27;20103;-77
2023/08/02 23:14:32;;;;;;;3.83;1.02;;;;;;;;;;10562236;27;20043;-77
2023/08/02 23:19:35;;;;;;;2.60;1.30;;;;;;;;;;10560016;27;20038;-77
2023/08/02 23:24:38;;;;;;;;;;;;;;;;;;10553017;27;20119;-77
2023/08/02 23:29:42;;;;;;;1.48;1.10;;;;;;;;;;10561339;27;20031;-77
2023/08/02 23:34:45;;;;;;;2.33;0.88;;;;;;;;;;10562263;28;20048;-75
2023/08/02 23:39:48;;;;;;;3.80;1.30;;;;;;;;;;10559456;28;20154;-76
2023/08/02 23:44:52;;;;;;;3.22;1.13;;;;;;;;;;10547894;28;20067;-76
2023/08/02 23:49:55;;;;;;;6.05;1.30;;;;;;;;;;10572881;28;20051;-77
2023/08/02 23:54:58;;;;;;;2.47;0.93;;;;;;;;;;10570315;28;20044;-77
